NY Terminal Aviation Weather Discussion (AFD) - Prepared: 1206 AM EDT FRI OCT 31 2014
HIGH PRESSURE BUILDS NORTH AND EAST OF THE AREA THROUGH
FRIDAY...WHILE LOW PRESSURE DROPS SE ACROSS THE GREAT LAKES. A
SECONDARY COASTAL LOW THEN DEEPENS ON FRIDAY AND TRACKS NE OFF
THE MID ATLANTIC COAST.

EXPECT MAINLY VFR CONDITIONS WITH POSSIBLE MVFR CONDITIONS BY
LATE FRI AFTERNOON. HIGHER CONFIDENCE IS AFTER 00Z SAT WITH THE
ONSET OF -RA.

WINDS CONTINUE TO VEER TO THE N OVERNIGHT AND NE ON FRIDAY.
 
5 Day General Aviation Outlook:

.OUTLOOK FOR 00Z SATURDAY THROUGH TUESDAY...
.FRI NIGHT-SAT NIGHT...MVFR OR LOWER. PCPN MAINLY RAIN...BUT SNOW
MAY MIX IN ACROSS THE INTERIOR SUN NIGHT. NE-N WINDS
15-20G25-35KT.
.SUNDAY...MAINLY VFR. AFT STRATO CU WITH ISOLATED
FLURRIES/SPRINKLES. NW WINDS 20-25G30-35KT.
.MONDAY AND TUESDAY...VFR.


NY Metro Terminal Aviation Weather Summary: (Explanation of Color Coding)
NOTE: All Wind Directions are TRUE (add 13 degrees for magnetic directions). Tail and Crosswind Calculations do account for the magnetic deviation of runways.

Click on the Airport Below for Specific Information at that Terminal

TAF Overview JFK TAF LGA TAF EWR TAF TEB TAF HPN TAF ISP TAF

Jump to AirSpace Impacts Section Condensed "lite" version of SPA page
**************************************************************************************
KJFK Terminal Weather: (Wind Directions Are True, Except Where Noted, ADD 13 degrees for Magnetic)

5MIN KJFK 310445Z 34009KT 10SM FEW040 08/02 A3002 -70 
     63 -800 360/09 RMK AO2 SLP166 T00830017 401610078
5MIN KJFK 310440Z 35008KT 10SM FEW040 08/02 A3002 -70 
     63 -800 360/08 RMK AO2
********************************************
****        MAGNETIC DIRECTIONS         ****
********************************************
KJFK 10/31/2014 04:55:27 GMT 350 09 KT
KJFK 10/31/2014 04:53:27 GMT 350 09 KT
KJFK 10/31/2014 04:51:27 GMT 350 09 KT
KJFK 10/31/2014 04:49:27 GMT 350 09 KT
KJFK 10/31/2014 04:47:27 GMT 350 08 KT
KJFK 10/31/2014 04:45:27 GMT 350 08 KT
KJFK 10/31/2014 04:43:27 GMT 350 09 KT
KJFK 10/31/2014 04:41:27 GMT 350 08 KT
KJFK 10/31/2014 04:39:27 GMT 350 08 KT
KJFK 10/31/2014 04:37:27 GMT 350 09 KT
SAUS70 KJFK 310400 RRO
METAR KJFK 310351Z 34006KT 10SM CLR 09/02 A3002 RMK AO2 SLP165
     T00890017
FTNA35 KJFK 302345 RRE
KJFK 302341Z 3100/0106 33007KT P6SM FEW050
     FM310900 01007KT P6SM FEW035
     FM311500 04007KT P6SM SCT035
     FM312100 06010KT P6SM SCT025 BKN035
     FM010000 05011KT P6SM -RA BKN025 OVC035
KJFK Forecaster Comments Not Available at This Time
jfk

JFK Hourly Forecast Temperature (C)

JFK Hourly TMPS
**************************************************************************************
KLGA Terminal Weather: (Wind Directions Are True, Except Where Noted, ADD 13 degrees for Magnetic)

5MIN KLGA 310445Z 34006KT 10SM CLR 09/03 A3002 -60 63 
     -700 350/06 RMK AO2 SLP164 T00940028 401440094
5MIN KLGA 310440Z 33007KT 10SM CLR 09/03 A3001 -60 63 
     -700 350/07 RMK AO2
********************************************
****        MAGNETIC DIRECTIONS         ****
********************************************
KLGA 10/31/2014 04:55:54 GMT 360 11 KT
KLGA 10/31/2014 04:53:54 GMT 010 11 KT
KLGA 10/31/2014 04:51:53 GMT 360 11 KT
KLGA 10/31/2014 04:49:53 GMT 360 10 KT
KLGA 10/31/2014 04:47:53 GMT 360 10 KT
KLGA 10/31/2014 04:45:53 GMT 360 10 KT
KLGA 10/31/2014 04:43:53 GMT 010 11 KT
KLGA 10/31/2014 04:41:53 GMT 360 09 KT
KLGA 10/31/2014 04:39:54 GMT 360 11 KT
KLGA 10/31/2014 04:37:53 GMT 360 10 KT
SAUS70 KLGA 310500
METAR KLGA 310451Z 34007KT 10SM FEW250 09/03 A3002 RMK AO2 SLP164
     T00940028 401440094
FTUS80 KLGA 302342 RRD
KLGA 302341Z 3100/3124 33007KT P6SM FEW050
     FM310900 02007KT P6SM FEW035
     FM311500 04009KT P6SM SCT035
     FM312100 06010KT P6SM SCT025 BKN035
KLGA Forecaster Comments Not Available at This Time
lga


**************************************************************************************

KEWR Terminal Weather: (Wind Directions Are True, Except Where Noted, ADD 13 degrees for Magnetic)

5MIN KEWR 310445Z 34006KT 10SM CLR 08/01 A3002 -70 60 
     -800 350/06 RMK AO2 SLP166 T00830011 401610061
5MIN KEWR 310440Z 33006KT 10SM CLR 08/01 A3002 -70 60 
     -800 350/06 RMK AO2
********************************************
****        MAGNETIC DIRECTIONS         ****
********************************************
KEWR 10/31/2014 04:55:09 GMT 030 05 KT
KEWR 10/31/2014 04:53:09 GMT 020 06 KT
KEWR 10/31/2014 04:51:09 GMT 020 06 KT
KEWR 10/31/2014 04:49:09 GMT 020 07 KT
KEWR 10/31/2014 04:47:09 GMT 010 07 KT
KEWR 10/31/2014 04:45:09 GMT 360 05 KT
KEWR 10/31/2014 04:43:09 GMT 020 07 KT
KEWR 10/31/2014 04:41:09 GMT 010 06 KT
KEWR 10/31/2014 04:39:09 GMT 360 07 KT
KEWR 10/31/2014 04:37:09 GMT 360 06 KT
SAUS70 KEWR 310400
METAR KEWR 310351Z 36004KT 10SM CLR 08/01 A3002 RMK AO2 SLP165
     T00830006
FTUS80 KEWR 302342 RRB
KEWR 302341Z 3100/0106 33006KT P6SM FEW050
     FM310900 02006KT P6SM FEW035
     FM311500 04006KT P6SM SCT035
     FM312100 06008KT P6SM SCT025 BKN035
     FM010000 04009KT P6SM -RA BKN025 OVC035
KEWR Forecaster Comments Not Available at This Time
ewr
Afternoon EWR Haze Potential Forecast: KEWR Haze Forecast Not Available at This Time
IS NOT AVAILABLE AT THIS TIME


******************************************************************************

KTEB Terminal Weather:
SAUS80 KTEB 310400
METAR KTEB 310351Z 33003KT 10SM CLR 07/01 A3002 RMK AO2 SLP164
     T00720011
FTUS80 KTEB 302342 RRH
KTEB 302341Z 3100/3124 34004KT P6SM FEW050
     FM310900 01004KT P6SM FEW035
     FM311500 04004KT P6SM SCT035
     FM312100 07006KT P6SM SCT025 BKN035
KTEB Forecaster Comments Not Available at This Time
teb

 


**************************************************************************************

KHPN Terminal Weather:
SAUS70 KHPN 310400 RRF
METAR KHPN 310356Z 10SM CLR 05/02 A3000 RMK AO2 SLP163 T00500017
FTUS80 KHPN 302342 RRC
KHPN 302341Z 3100/3124 33004KT P6SM FEW050
     FM310900 01004KT P6SM FEW035
     FM311500 04004KT P6SM SCT035
     FM311900 09005KT P6SM SCT035
     FM312300 06006KT P6SM SCT025 BKN035 AMD NOT SKED
KHPN Forecaster Comments Not Available at This Time
HPN


******************************************************************************

KISP Terminal Weather:
SAUS70 KISP 310400 RRF
METAR KISP 310356Z 00000KT 10SM FEW060 06/03 A2999 RMK AO2 SLP154 LAST
     AUGMENTED OBSERVATION UNTIL 1000Z T00610028
FTUS80 KISP 302342 RRD
KISP 302341Z 3100/3124 35004KT P6SM FEW050
     FM310900 02004KT P6SM FEW035
     FM311500 05007KT P6SM SCT035
     FM312100 07010KT P6SM -RA BKN025 OVC035
KISP Forecaster Comments Not Available at This Time
ISP

 


ZNY SWAP Season Information

(ZNY SWAP STATEMENT) (Click for PDF File) (ZNY BRIEFING) (Click for PDF File)

*******************************************************
***        NY AIR ROUTE TRAFFIC CONTROL CENTER      ***
***                DAILY SWAP STATEMENT             ***
*******************************************************
NY AIR ROUTE TRAFFIC CONTROL CENTER
DAILY SWAP STATEMENT
SUNDAY OCTOBER 26, 2014
ROUTINE SWAP STATEMENTS ARE ISSUED 
BETWEEN APRIL 1 AND SEPTEMBER 30.
SWAP STATEMENTS WILL BE ISSUED IF TS ARE 
EXPECTED TO IMPACT OPERATIONS.
$$



N90 AirSpace Impacts

N90 ZNY Gate TSTM Forecast    SWAP Day One Forecast

SWAP Day One Forecast    SWAP Day Two Outlook

National Collaborative Convective Forecast Product (CCFP) Forecasts (Mar-Oct)


Vertical Wind Profile
Untitled Document